This is the latest recevied weather packets stored in our database for station/object 9M4RBN-3. If no packets are shown the sender has not sent any weather packets the latest 10 day(s).
| Time | Temp. | Humidity | Pressure | Rain* | Wind** | Luminosity | Snow |
|---|---|---|---|---|---|---|---|
| 1777663341 | 27.22° C | 71% | 1014.4 hPa | - | - | - | - |
| 1777663291 | 27.22° C | 71% | 1014.4 hPa | - | - | - | - |
| 1777662391 | 27.22° C | 70% | 1014.6 hPa | - | - | - | - |
| 1777661491 | 27.22° C | 70% | 1014.7 hPa | - | - | - | - |
| 1777660591 | 27.22° C | 70% | 1015 hPa | - | - | - | - |
| 1777659691 | 27.22° C | 70% | 1015 hPa | - | - | - | - |
| 1777658791 | 26.67° C | 69% | 1015.1 hPa | - | - | - | - |
| 1777657891 | 26.67° C | 68% | 1015.3 hPa | - | - | - | - |
| 1777657372 | 26.67° C | 68% | 1015.3 hPa | - | - | - | - |
| 1777656991 | 26.67° C | 68% | 1015.3 hPa | - | - | - | - |
| 1777656091 | 26.67° C | 67% | 1015.5 hPa | - | - | - | - |
| 1777655191 | 26.67° C | 67% | 1015.6 hPa | - | - | - | - |
| 1777654291 | 26.11° C | 65% | 1015.7 hPa | - | - | - | - |
| 1777653391 | 26.11° C | 63% | 1016 hPa | - | - | - | - |
| 1777652491 | 25.56° C | 60% | 1016.2 hPa | - | - | - | - |
| 1777651591 | 25.56° C | 58% | 1016.3 hPa | - | - | - | - |
| 1777650691 | 25.56° C | 67% | 1016.3 hPa | - | - | - | - |
| 1777649790 | 24.44° C | 61% | 1016 hPa | - | - | - | - |
| 1777648890 | 23.89° C | 45% | 1016.1 hPa | - | - | - | - |
| 1777647990 | 24.44° C | 45% | 1016.1 hPa | - | - | - | - |
| 1777647090 | 24.44° C | 45% | 1015.9 hPa | - | - | - | - |
| 1777646192 | 24.44° C | 45% | 1016 hPa | - | - | - | - |
| 1777645294 | 24.44° C | 45% | 1015.8 hPa | - | - | - | - |
| 1777644394 | 25° C | 45% | 1015.7 hPa | - | - | - | - |
| 1777643494 | 25° C | 44% | 1015.6 hPa | - | - | - | - |
* Rain since midnight (hover to see other rain measurements)
** Current wind speed in m/s (hover to see current wind gust speed)